Flight Track Log - Related Links

Times and Time Zones

All times are in EDT time to prevent confusion due to time zone crossing. See the CSN6877 flight status page for this flight to view local times or setup timezone preferences in your user account.

Time Position Orientation Groundspeed Altitude Reporting Facility
EDT Latitude Longitude Course Direction KTS MPH feet Rate Location/Type
Fri 09:54:00 AM 43.8196 87.2811 238° Southwest  Level Estimated
Fri 09:55:00 AM 43.7318 87.0886 238° Southwest  Level Estimated
Fri 09:56:00 AM 43.6436 86.8966 238° Southwest  Level Estimated
Fri 09:57:00 AM 43.5551 86.7052 238° Southwest  Level Estimated
Fri 09:58:00 AM 43.4663 86.5143 237° Southwest  Level Estimated
Fri 09:59:00 AM 43.3772 86.3240 237° Southwest  Level Estimated
Fri 10:00:00 AM 43.2878 86.1343 237° Southwest  Level Estimated
Fri 10:01:00 AM 43.1980 85.9451 237° Southwest  Level Estimated
Fri 10:02:00 AM 43.1080 85.7565 237° Southwest  Level Estimated
Fri 10:03:00 AM 43.0176 85.5684 237° Southwest  Level Estimated
Fri 10:04:00 AM 42.9269 85.3809 237° Southwest  Level Estimated
Fri 10:05:00 AM 42.8360 85.1939 236° Southwest  Level Estimated
Fri 10:06:00 AM 42.7447 85.0075 236° Southwest  Level Estimated
Fri 10:07:00 AM 42.6531 84.8216 236° Southwest  Level Estimated
Fri 10:08:00 AM 42.5612 84.6363 236° Southwest  Level Estimated
Fri 10:09:00 AM 42.4691 84.4515 236° Southwest  Level Estimated
Fri 10:10:00 AM 42.3766 84.2673 236° Southwest  Level Estimated
Fri 10:11:00 AM 42.2838 84.0836 236° Southwest  Level Estimated
Fri 10:12:00 AM 42.1908 83.9005 236° Southwest  Level Estimated
Fri 10:13:00 AM 42.0974 83.7179 235° Southwest  Level Estimated
Fri 10:14:00 AM 42.0038 83.5358 235° Southwest  Level Estimated
Fri 10:15:00 AM 41.9098 83.3543 235° Southwest  Level Estimated
Fri 10:16:00 AM 41.8156 83.1733 235° Southwest  Level Estimated
Fri 10:17:00 AM 41.7211 82.9928 235° Southwest  Level Estimated
Fri 10:18:00 AM 41.7181 82.9869 235° Southwest  Level Estimated
Fri 10:19:00 AM 41.7181 82.9869 143° Southeast  Level Estimated
Fri 10:20:00 AM 41.7181 82.9869 143° Southeast  Level Estimated
Fri 10:21:00 AM 41.7181 82.9869 143° Southeast  Level Estimated
Fri 10:22:00 AM 41.7181 82.9869 143° Southeast  Level Estimated
Fri 10:23:00 AM 41.7181 82.9869 143° Southeast  Level Estimated
Fri 10:24:00 AM 41.7181 82.9869 143° Southeast  Level Estimated
Fri 10:25:00 AM 41.7181 82.9869 143° Southeast  Level Estimated
Fri 10:26:00 AM 41.7181 82.9869 143° Southeast  Level Estimated
Fri 10:27:00 AM 41.7181 82.9869 143° Southeast  Level Estimated
Fri 10:28:00 AM 41.7181 82.9869 143° Southeast  Level Estimated
Fri 10:29:00 AM 41.7181 82.9869 143° Southeast  Level Estimated

Login

Don't have an account? Register now (free) for customized features, flight alerts, and more!